createdAt,value
2018-10-17T00:00:12.835Z,15.10
2018-10-17T00:02:41.398Z,14.17
2018-10-17T00:05:10.583Z,13.22
2018-10-17T00:07:39.699Z,15.00
2018-10-17T00:10:09.102Z,14.00
2018-10-17T00:12:37.406Z,14.80
2018-10-17T00:15:06.476Z,14.80
2018-10-17T00:17:35.032Z,15.15
2018-10-17T00:20:03.966Z,14.27
2018-10-17T00:22:32.248Z,15.10
2018-10-17T00:25:00.833Z,14.93
2018-10-17T00:27:29.543Z,15.40
2018-10-17T00:29:58.176Z,15.23
2018-10-17T00:32:26.642Z,15.97
2018-10-17T00:34:55.268Z,13.80
2018-10-17T00:37:23.721Z,13.30
2018-10-17T00:39:52.003Z,13.00
2018-10-17T00:42:20.720Z,13.48
2018-10-17T00:44:49.256Z,12.65
2018-10-17T00:47:17.819Z,12.50
2018-10-17T00:49:46.359Z,12.30
2018-10-17T00:52:14.690Z,12.70
2018-10-17T00:54:43.177Z,12.43
2018-10-17T00:57:11.780Z,12.58
2018-10-17T00:59:40.052Z,13.27
2018-10-17T01:02:09.054Z,12.60
2018-10-17T01:04:37.498Z,11.80
2018-10-17T01:07:06.116Z,13.32
2018-10-17T01:09:34.556Z,11.93
2018-10-17T01:12:02.872Z,14.20
2018-10-17T01:14:31.140Z,13.73
2018-10-17T01:16:59.631Z,12.70
2018-10-17T01:19:28.340Z,13.40
2018-10-17T01:21:56.704Z,12.93
2018-10-17T01:24:25.247Z,14.30
2018-10-17T01:26:54.103Z,12.60
2018-10-17T01:29:22.833Z,14.67
2018-10-17T01:31:51.245Z,13.57
2018-10-17T01:34:19.632Z,14.50
2018-10-17T01:36:47.910Z,12.73
2018-10-17T01:39:16.190Z,13.10
2018-10-17T01:41:45.232Z,13.63
2018-10-17T01:44:13.623Z,12.20
2018-10-17T01:46:42.183Z,14.33
2018-10-17T01:49:10.883Z,13.90
2018-10-17T01:51:39.525Z,13.60
2018-10-17T01:54:08.155Z,13.97
2018-10-17T01:56:36.520Z,12.73
2018-10-17T01:59:06.030Z,12.40
2018-10-17T02:01:34.531Z,13.00
2018-10-17T02:04:02.869Z,13.13
2018-10-17T02:06:31.695Z,14.37
2018-10-17T02:08:59.999Z,12.93
2018-10-17T02:11:28.375Z,13.07
2018-10-17T02:13:56.656Z,13.13
2018-10-17T02:16:25.230Z,12.90
2018-10-17T02:18:53.566Z,14.43
2018-10-17T02:21:21.856Z,13.47
2018-10-17T02:23:50.118Z,12.27
2018-10-17T02:26:18.412Z,13.43
2018-10-17T02:28:46.664Z,12.97
2018-10-17T02:31:14.939Z,12.80
2018-10-17T02:33:43.696Z,13.70
2018-10-17T02:36:11.984Z,13.70
2018-10-17T02:38:40.586Z,12.57
2018-10-17T02:41:09.300Z,13.53
2018-10-17T02:43:37.661Z,12.70
2018-10-17T02:46:06.375Z,12.90
2018-10-17T02:48:35.027Z,13.67
2018-10-17T02:51:03.641Z,13.67
2018-10-17T02:53:32.288Z,12.78
2018-10-17T02:56:00.888Z,13.90
2018-10-17T02:58:29.316Z,12.57
2018-10-17T03:00:57.766Z,13.57
2018-10-17T03:03:26.544Z,13.90
2018-10-17T03:05:55.100Z,13.70
2018-10-17T03:08:23.644Z,13.03
2018-10-17T03:10:52.202Z,14.37
2018-10-17T03:13:20.511Z,14.07
2018-10-17T03:15:48.950Z,14.60
2018-10-17T03:18:17.699Z,12.77
2018-10-17T03:20:46.573Z,13.40
2018-10-17T03:23:14.936Z,13.23
2018-10-17T03:25:43.388Z,13.47
2018-10-17T03:28:11.699Z,14.97
2018-10-17T03:30:40.140Z,13.20
2018-10-17T03:33:08.683Z,12.73
2018-10-17T03:35:37.260Z,13.15
2018-10-17T03:38:05.916Z,13.62
2018-10-17T03:40:34.272Z,13.13
2018-10-17T03:43:02.603Z,12.97
2018-10-17T03:45:31.458Z,13.18
2018-10-17T03:48:00.062Z,12.17
2018-10-17T03:50:28.321Z,13.33
2018-10-17T03:52:56.625Z,14.70
2018-10-17T03:55:25.048Z,13.20
2018-10-17T03:57:53.463Z,13.43
2018-10-17T04:00:22.008Z,13.33
2018-10-17T04:02:50.400Z,13.70
2018-10-17T04:05:18.839Z,12.90
2018-10-17T04:07:47.258Z,14.10
2018-10-17T04:10:16.027Z,15.77
2018-10-17T04:12:44.604Z,13.35
2018-10-17T04:15:13.059Z,13.40
2018-10-17T04:17:41.660Z,13.57
2018-10-17T04:20:11.296Z,13.90
2018-10-17T04:22:44.119Z,12.93
2018-10-17T04:25:12.870Z,13.53
2018-10-17T04:27:41.292Z,12.20
2018-10-17T04:30:09.607Z,14.20
2018-10-17T04:32:38.191Z,14.83
2018-10-17T04:35:06.725Z,14.67
2018-10-17T04:37:35.781Z,13.60
2018-10-17T04:40:04.423Z,14.93
2018-10-17T04:42:32.853Z,14.20
2018-10-17T04:45:01.371Z,15.00
2018-10-17T04:47:29.646Z,14.77
2018-10-17T04:49:58.104Z,16.10
2018-10-17T04:52:26.647Z,15.00
2018-10-17T04:54:55.271Z,15.57
2018-10-17T04:57:23.708Z,15.20
2018-10-17T04:59:51.996Z,13.80
2018-10-17T05:02:20.334Z,13.87
2018-10-17T05:04:49.407Z,15.20
2018-10-17T05:07:17.908Z,15.53
2018-10-17T05:09:46.335Z,15.37
2018-10-17T05:12:14.618Z,14.80
2018-10-17T05:14:42.980Z,15.00
2018-10-17T05:17:11.372Z,15.47
2018-10-17T05:19:39.775Z,14.80
2018-10-17T05:22:08.579Z,15.53
2018-10-17T05:24:37.115Z,14.73
2018-10-17T05:27:05.692Z,14.50
2018-10-17T05:29:34.165Z,14.33
2018-10-17T05:32:02.918Z,13.58
2018-10-17T05:34:31.364Z,15.10
2018-10-17T05:36:59.872Z,14.40
2018-10-17T05:39:28.326Z,13.70
2018-10-17T05:41:57.069Z,13.40
2018-10-17T05:44:25.674Z,13.03
2018-10-17T05:46:54.163Z,14.87
2018-10-17T05:49:22.637Z,12.80
2018-10-17T05:51:51.024Z,13.70
2018-10-17T05:54:19.546Z,13.80
2018-10-17T05:56:47.891Z,15.07
2018-10-17T05:59:16.211Z,15.00
2018-10-17T06:01:44.892Z,14.90
2018-10-17T06:04:13.390Z,16.20
2018-10-17T06:06:41.680Z,14.70
2018-10-17T06:09:11.642Z,12.87
2018-10-17T06:11:40.087Z,14.00
2018-10-17T06:14:12.627Z,13.57
2018-10-17T06:16:41.295Z,13.20
2018-10-17T06:19:09.818Z,14.57
2018-10-17T06:21:38.818Z,13.87
2018-10-17T06:24:07.979Z,13.80
2018-10-17T06:26:36.549Z,14.27
2018-10-17T06:29:05.278Z,13.17
2018-10-17T06:31:34.460Z,13.10
2018-10-17T06:34:03.605Z,13.85
2018-10-17T06:36:32.142Z,12.70
2018-10-17T06:39:00.835Z,13.90
2018-10-17T06:41:29.265Z,13.83
2018-10-17T06:43:57.812Z,12.33
2018-10-17T06:46:26.707Z,13.33
2018-10-17T06:48:55.281Z,12.90
2018-10-17T06:51:23.961Z,12.80
2018-10-17T06:53:52.530Z,13.10
2018-10-17T06:56:20.971Z,14.97
2018-10-17T06:58:49.795Z,12.18
2018-10-17T07:01:18.781Z,12.25
2018-10-17T07:03:47.503Z,11.78
2018-10-17T07:06:15.908Z,11.87
2018-10-17T07:08:44.781Z,12.30
2018-10-17T07:11:13.214Z,12.73
2018-10-17T07:13:41.634Z,11.40
2018-10-17T07:16:10.172Z,11.90
2018-10-17T07:18:38.728Z,12.57
2018-10-17T07:21:07.892Z,10.70
2018-10-17T07:23:36.964Z,10.67
2018-10-17T07:26:05.889Z,11.53
2018-10-17T07:28:34.242Z,10.87
2018-10-17T07:31:03.045Z,11.60
2018-10-17T07:33:31.501Z,10.50
2018-10-17T07:35:59.839Z,10.60
2018-10-17T07:38:28.480Z,9.50
2018-10-17T07:40:57.082Z,9.93
2018-10-17T07:43:25.455Z,9.03
2018-10-17T07:45:53.981Z,9.77
2018-10-17T07:48:22.303Z,8.90
2018-10-17T07:50:50.583Z,9.70
2018-10-17T07:53:19.231Z,8.83
2018-10-17T07:55:48.036Z,10.03
2018-10-17T07:58:16.492Z,9.80
2018-10-17T08:00:45.127Z,9.80
2018-10-17T08:03:13.723Z,11.05
2018-10-17T08:05:42.204Z,10.83
2018-10-17T08:08:10.608Z,10.50
2018-10-17T08:10:39.156Z,10.08
2018-10-17T08:13:07.647Z,9.87
2018-10-17T08:15:36.140Z,9.90
2018-10-17T08:18:04.457Z,10.17
2018-10-17T08:20:33.217Z,9.90
2018-10-17T08:23:02.379Z,9.75
2018-10-17T08:25:31.079Z,10.27
2018-10-17T08:27:59.683Z,11.40
2018-10-17T08:30:28.063Z,9.83
2018-10-17T08:32:56.905Z,11.33
2018-10-17T08:35:25.338Z,10.73
2018-10-17T08:37:54.484Z,11.70
2018-10-17T08:40:22.543Z,10.67
2018-10-17T08:42:50.971Z,10.73
2018-10-17T08:45:19.348Z,11.03
2018-10-17T08:47:47.796Z,11.40
2018-10-17T08:50:16.153Z,10.37
2018-10-17T08:52:44.995Z,9.80
2018-10-17T08:55:13.419Z,10.50
2018-10-17T08:57:41.773Z,10.77
2018-10-17T09:00:10.506Z,10.87
2018-10-17T09:02:39.130Z,10.30
2018-10-17T09:05:07.705Z,10.85
2018-10-17T09:07:36.871Z,10.30
2018-10-17T09:10:06.324Z,10.90
2018-10-17T09:12:34.880Z,10.50
2018-10-17T09:15:03.977Z,11.30
2018-10-17T09:17:32.358Z,10.03
2018-10-17T09:20:00.796Z,10.63
2018-10-17T09:22:29.840Z,10.27
2018-10-17T09:24:58.541Z,9.88
2018-10-17T09:27:26.985Z,10.83
2018-10-17T09:29:55.552Z,10.20
2018-10-17T09:32:24.034Z,10.70
2018-10-17T09:34:52.729Z,9.70
2018-10-17T09:37:21.180Z,10.17
2018-10-17T09:39:49.455Z,9.80
2018-10-17T09:42:18.484Z,9.63
2018-10-17T09:44:46.876Z,11.20
2018-10-17T09:47:15.800Z,10.63
2018-10-17T09:49:44.176Z,10.47
2018-10-17T09:52:12.485Z,10.47
2018-10-17T09:54:40.946Z,10.60
2018-10-17T09:57:09.227Z,10.67
2018-10-17T09:59:37.543Z,10.37
2018-10-17T10:02:06.203Z,9.20
2018-10-17T10:04:34.932Z,10.63
2018-10-17T10:07:03.314Z,9.70
2018-10-17T10:09:31.667Z,9.70
2018-10-17T10:12:00.501Z,10.40
2018-10-17T10:14:29.042Z,10.10
2018-10-17T10:16:57.363Z,9.57
2018-10-17T10:19:26.014Z,10.93
2018-10-17T10:21:54.336Z,10.60
2018-10-17T10:24:22.761Z,10.60
2018-10-17T10:26:51.130Z,10.77
2018-10-17T10:29:19.610Z,9.90
2018-10-17T10:31:48.076Z,8.80
2018-10-17T10:34:16.973Z,8.58
2018-10-17T10:36:45.448Z,9.60
2018-10-17T10:39:14.382Z,9.77
2018-10-17T10:41:42.664Z,9.03
2018-10-17T10:44:11.312Z,8.88
2018-10-17T10:46:40.023Z,8.43
2018-10-17T10:49:08.577Z,9.00
2018-10-17T10:51:36.991Z,8.13
2018-10-17T10:54:06.038Z,8.20
2018-10-17T10:56:34.532Z,8.13
2018-10-17T10:59:02.958Z,8.27
2018-10-17T11:01:31.432Z,6.80
2018-10-17T11:03:59.998Z,7.45
2018-10-17T11:06:28.423Z,8.23
2018-10-17T11:08:56.828Z,8.37
2018-10-17T11:11:25.408Z,8.20
2018-10-17T11:13:53.794Z,8.60
2018-10-17T11:16:22.235Z,7.93
2018-10-17T11:18:50.650Z,8.80
2018-10-17T11:21:19.033Z,9.00
2018-10-17T11:23:47.730Z,9.60
2018-10-17T11:26:16.041Z,8.77
2018-10-17T11:28:44.473Z,8.00
2018-10-17T11:31:12.912Z,8.40
2018-10-17T11:33:41.310Z,8.23
2018-10-17T11:36:09.744Z,8.80
2018-10-17T11:38:38.236Z,8.80
2018-10-17T11:41:07.002Z,8.43
2018-10-17T11:43:35.859Z,8.20
2018-10-17T11:46:04.815Z,8.40
2018-10-17T11:48:33.660Z,8.90
2018-10-17T11:51:02.005Z,9.27
2018-10-17T11:53:30.804Z,9.03
2018-10-17T11:55:59.110Z,8.43
2018-10-17T11:58:27.721Z,8.30
2018-10-17T12:00:55.988Z,8.50
2018-10-17T12:03:24.356Z,8.40
2018-10-17T12:05:52.767Z,8.80
2018-10-17T12:08:21.152Z,8.23
2018-10-17T12:10:49.528Z,8.47
2018-10-17T12:13:18.134Z,8.63
2018-10-17T12:15:46.418Z,8.37
2018-10-17T12:18:15.169Z,7.65
2018-10-17T12:20:43.783Z,8.03
2018-10-17T12:23:12.261Z,7.60
2018-10-17T12:25:41.274Z,7.57
2018-10-17T12:28:09.988Z,8.47
2018-10-17T12:30:38.360Z,8.60
2018-10-17T12:33:06.866Z,8.87
2018-10-17T12:35:35.547Z,8.10
2018-10-17T12:38:04.468Z,8.60
2018-10-17T12:40:33.101Z,7.87
2018-10-17T12:43:01.755Z,8.20
2018-10-17T12:45:30.140Z,9.10
2018-10-17T12:47:58.540Z,9.10
2018-10-17T12:50:27.534Z,8.78
2018-10-17T12:52:56.195Z,8.40
2018-10-17T12:55:24.545Z,8.17
2018-10-17T12:57:52.955Z,8.83
2018-10-17T13:00:21.554Z,10.67
2018-10-17T13:02:50.182Z,9.33
2018-10-17T13:05:18.818Z,9.28
2018-10-17T13:07:47.306Z,11.40
2018-10-17T13:10:15.613Z,10.40
2018-10-17T13:12:44.208Z,9.00
2018-10-17T13:15:13.471Z,9.30
2018-10-17T13:17:43.268Z,10.10
2018-10-17T13:20:11.892Z,11.03
2018-10-17T13:22:40.440Z,10.27
2018-10-17T13:25:09.020Z,10.50
2018-10-17T13:27:37.515Z,10.47
2018-10-17T13:30:06.699Z,10.37
2018-10-17T13:32:35.047Z,10.53
2018-10-17T13:35:03.649Z,9.20
2018-10-17T13:37:32.540Z,8.38
2018-10-17T13:40:01.060Z,9.40
2018-10-17T13:42:29.356Z,9.70
2018-10-17T13:44:57.940Z,8.78
2018-10-17T13:47:26.523Z,9.50
2018-10-17T13:49:56.068Z,8.90
2018-10-17T13:52:24.347Z,9.37
2018-10-17T13:54:53.345Z,9.70
2018-10-17T13:57:22.036Z,9.00
2018-10-17T13:59:50.828Z,9.30
2018-10-17T14:02:19.393Z,10.40
2018-10-17T14:04:47.990Z,8.40
2018-10-17T14:07:17.423Z,9.87
2018-10-17T14:09:45.939Z,9.03
2018-10-17T14:12:14.361Z,10.00
2018-10-17T14:14:42.876Z,9.10
2018-10-17T14:17:11.359Z,10.40
2018-10-17T14:19:39.769Z,10.33
2018-10-17T14:22:08.963Z,9.90
2018-10-17T14:24:37.260Z,9.60
2018-10-17T14:27:06.187Z,9.93
2018-10-17T14:29:34.642Z,10.67
2018-10-17T14:32:03.372Z,9.80
2018-10-17T14:34:31.781Z,9.70
2018-10-17T14:37:00.252Z,10.00
2018-10-17T14:39:28.857Z,8.97
2018-10-17T14:41:57.291Z,9.67
2018-10-17T14:44:25.767Z,9.83
2018-10-17T14:46:54.783Z,9.53
2018-10-17T14:49:23.148Z,9.27
2018-10-17T14:51:51.412Z,9.60
2018-10-17T14:54:20.068Z,9.47
2018-10-17T14:56:48.347Z,8.93
2018-10-17T14:59:17.255Z,9.73
2018-10-17T15:01:45.640Z,10.20
2018-10-17T15:04:14.240Z,10.67
2018-10-17T15:06:42.520Z,10.47
2018-10-17T15:09:10.949Z,10.67
2018-10-17T15:11:40.447Z,10.43
2018-10-17T15:14:09.271Z,10.30
2018-10-17T15:16:38.143Z,10.70
2018-10-17T15:19:06.740Z,10.80
2018-10-17T15:21:35.374Z,11.13
2018-10-17T15:24:03.727Z,11.80
2018-10-17T15:26:32.168Z,10.90
2018-10-17T15:29:02.139Z,11.10
2018-10-17T15:31:30.508Z,11.10
2018-10-17T15:33:59.066Z,11.07
2018-10-17T15:36:27.656Z,13.40
2018-10-17T15:38:56.072Z,11.93
2018-10-17T15:41:24.537Z,11.83
2018-10-17T15:43:52.999Z,12.87
2018-10-17T15:46:21.758Z,12.93
2018-10-17T15:48:50.344Z,14.60
2018-10-17T15:51:19.192Z,13.30
2018-10-17T15:53:47.715Z,15.07
2018-10-17T15:56:16.093Z,13.63
2018-10-17T15:58:44.633Z,15.88
2018-10-17T16:01:12.941Z,15.10
2018-10-17T16:03:41.391Z,14.00
2018-10-17T16:06:09.778Z,13.90
2018-10-17T16:08:38.990Z,12.93
2018-10-17T16:11:07.516Z,13.53
2018-10-17T16:13:35.812Z,13.07
2018-10-17T16:16:04.547Z,12.57
2018-10-17T16:18:33.217Z,14.50
2018-10-17T16:21:01.923Z,12.93
2018-10-17T16:23:30.500Z,13.30
2018-10-17T16:25:58.786Z,12.67
2018-10-17T16:28:27.358Z,13.00
2018-10-17T16:30:55.633Z,13.83
2018-10-17T16:33:24.217Z,13.90
2018-10-17T16:35:52.581Z,13.33
2018-10-17T16:38:21.226Z,12.47
2018-10-17T16:40:49.532Z,14.00
2018-10-17T16:43:18.026Z,13.53
2018-10-17T16:45:46.309Z,13.60
2018-10-17T16:48:15.043Z,14.45
2018-10-17T16:50:43.599Z,12.80
2018-10-17T16:53:12.160Z,15.20
2018-10-17T16:55:40.420Z,14.70
2018-10-17T16:58:08.859Z,12.63
2018-10-17T17:00:37.350Z,13.47
2018-10-17T17:03:05.982Z,15.65
2018-10-17T17:05:34.765Z,14.03
2018-10-17T17:08:03.143Z,13.53
2018-10-17T17:10:31.399Z,13.93
2018-10-17T17:13:00.008Z,15.20
2018-10-17T17:15:28.608Z,15.17
2018-10-17T17:17:57.056Z,16.20
2018-10-17T17:20:25.544Z,14.67
2018-10-17T17:22:54.261Z,16.27
2018-10-17T17:25:22.659Z,14.73
2018-10-17T17:27:50.967Z,15.60
2018-10-17T17:30:20.020Z,15.50
2018-10-17T17:32:49.125Z,15.40
2018-10-17T17:35:17.860Z,17.33
2018-10-17T17:37:46.428Z,16.27
2018-10-17T17:40:15.132Z,16.40
2018-10-17T17:42:43.525Z,15.27
2018-10-17T17:45:11.995Z,16.20
2018-10-17T17:47:40.708Z,16.33
2018-10-17T17:50:09.703Z,16.60
2018-10-17T17:52:37.992Z,16.43
2018-10-17T17:55:07.204Z,16.27
2018-10-17T17:57:35.807Z,17.60
2018-10-17T18:00:04.609Z,16.30
2018-10-17T18:02:33.169Z,17.92
2018-10-17T18:05:02.257Z,16.37
2018-10-17T18:07:30.560Z,16.67
2018-10-17T18:09:59.132Z,17.73
2018-10-17T18:12:28.028Z,17.00
2018-10-17T18:14:56.752Z,15.50
2018-10-17T18:17:25.260Z,18.20
2018-10-17T18:19:53.803Z,16.40
2018-10-17T18:22:22.112Z,17.47
2018-10-17T18:24:50.683Z,17.67
2018-10-17T18:27:19.210Z,17.80
2018-10-17T18:29:47.488Z,17.30
2018-10-17T18:32:15.772Z,17.57
2018-10-17T18:34:44.045Z,18.47
2018-10-17T18:37:12.505Z,16.93
2018-10-17T18:39:40.871Z,17.43
2018-10-17T18:42:09.177Z,16.50
2018-10-17T18:44:37.660Z,17.07
2018-10-17T18:47:06.287Z,17.50
2018-10-17T18:49:34.990Z,19.27
2018-10-17T18:52:03.928Z,18.75
2018-10-17T18:54:32.175Z,18.30
2018-10-17T18:57:00.610Z,18.27
2018-10-17T18:59:29.347Z,18.87
2018-10-17T19:01:57.639Z,17.80
2018-10-17T19:04:26.210Z,18.07
2018-10-17T19:06:54.832Z,17.30
2018-10-17T19:09:23.140Z,19.90
2018-10-17T19:11:51.450Z,17.70
2018-10-17T19:14:20.114Z,18.20
2018-10-17T19:16:48.423Z,18.57
2018-10-17T19:19:16.891Z,17.63
2018-10-17T19:21:45.443Z,19.23
2018-10-17T19:24:14.007Z,20.08
2018-10-17T19:26:42.287Z,19.83
2018-10-17T19:29:10.574Z,17.90
2018-10-17T19:31:39.240Z,19.00
2018-10-17T19:34:07.518Z,18.40
2018-10-17T19:36:35.815Z,20.20
2018-10-17T19:39:06.432Z,21.02
2018-10-17T19:41:35.522Z,18.23
2018-10-17T19:44:04.360Z,18.20
2018-10-17T19:46:33.314Z,19.40
2018-10-17T19:49:01.856Z,20.27
2018-10-17T19:51:30.143Z,18.37
2018-10-17T19:53:58.755Z,19.40
2018-10-17T19:56:27.215Z,16.70
2018-10-17T19:58:55.646Z,19.90
2018-10-17T20:01:24.340Z,20.30
2018-10-17T20:03:52.768Z,19.53
2018-10-17T20:06:21.030Z,18.60
2018-10-17T20:08:49.464Z,17.80
2018-10-17T20:11:18.053Z,20.68
2018-10-17T20:13:46.463Z,18.60
2018-10-17T20:16:14.731Z,19.00
2018-10-17T20:18:43.291Z,18.52
2018-10-17T20:21:11.959Z,18.13
2018-10-17T20:23:40.592Z,19.70
2018-10-17T20:26:09.175Z,19.03
2018-10-17T20:28:37.441Z,18.67
2018-10-17T20:31:05.703Z,20.00
2018-10-17T20:33:34.261Z,19.92
2018-10-17T20:36:02.879Z,18.83
2018-10-17T20:38:31.587Z,18.90
2018-10-17T20:41:00.025Z,18.50
2018-10-17T20:43:28.564Z,20.25
2018-10-17T20:45:57.063Z,19.43
2018-10-17T20:48:25.419Z,20.33
2018-10-17T20:50:54.035Z,20.37
2018-10-17T20:53:22.373Z,20.30
2018-10-17T20:55:50.852Z,18.60
2018-10-17T20:58:19.421Z,19.80
2018-10-17T21:00:47.821Z,20.63
2018-10-17T21:03:16.372Z,20.75
2018-10-17T21:05:44.650Z,20.37
2018-10-17T21:08:13.414Z,19.07
2018-10-17T21:10:41.977Z,19.83
2018-10-17T21:13:10.815Z,20.93
2018-10-17T21:15:39.423Z,22.00
2018-10-17T21:18:08.495Z,20.45
2018-10-17T21:20:36.966Z,18.30
2018-10-17T21:23:05.591Z,21.40
2018-10-17T21:25:33.885Z,21.33
2018-10-17T21:28:02.468Z,19.90
2018-10-17T21:30:30.781Z,21.60
2018-10-17T21:32:59.088Z,21.73
2018-10-17T21:35:27.684Z,21.40
2018-10-17T21:37:56.086Z,21.27
2018-10-17T21:40:24.483Z,19.80
2018-10-17T21:42:52.787Z,20.60
2018-10-17T21:45:21.315Z,20.60
2018-10-17T21:47:50.206Z,20.57
2018-10-17T21:50:18.973Z,20.43
2018-10-17T21:52:47.754Z,20.17
2018-10-17T21:55:16.133Z,21.20
2018-10-17T21:57:44.705Z,20.55
2018-10-17T22:00:14.131Z,21.77
2018-10-17T22:02:42.501Z,21.67
2018-10-17T22:05:11.577Z,19.40
2018-10-17T22:07:39.980Z,21.60
2018-10-17T22:10:09.216Z,20.10
2018-10-17T22:12:37.741Z,20.37
2018-10-17T22:15:07.337Z,20.83
2018-10-17T22:17:35.613Z,20.50
2018-10-17T22:20:04.071Z,20.60
2018-10-17T22:22:32.588Z,20.10
2018-10-17T22:25:00.884Z,22.50
2018-10-17T22:27:29.166Z,19.10
2018-10-17T22:29:57.737Z,17.87
2018-10-17T22:32:26.495Z,20.33
2018-10-17T22:34:55.043Z,22.50
2018-10-17T22:37:23.699Z,18.82
2018-10-17T22:39:52.079Z,17.50
2018-10-17T22:42:20.324Z,18.53
2018-10-17T22:44:48.935Z,18.75
2018-10-17T22:47:17.314Z,18.83
2018-10-17T22:49:45.588Z,19.50
2018-10-17T22:52:14.039Z,18.13
2018-10-17T22:54:42.324Z,19.10
2018-10-17T22:57:10.619Z,19.50
2018-10-17T22:59:39.004Z,19.30
2018-10-17T23:02:07.724Z,19.73
2018-10-17T23:04:36.413Z,19.15
2018-10-17T23:07:04.697Z,20.17
2018-10-17T23:09:33.337Z,19.00
2018-10-17T23:12:01.787Z,19.70
2018-10-17T23:14:30.087Z,19.80
2018-10-17T23:16:58.655Z,21.42
2018-10-17T23:19:26.972Z,19.20
2018-10-17T23:21:55.227Z,21.00
2018-10-17T23:24:23.517Z,20.10
2018-10-17T23:26:51.775Z,19.87
2018-10-17T23:29:20.461Z,20.30
2018-10-17T23:31:49.011Z,19.45
2018-10-17T23:34:17.353Z,19.90
2018-10-17T23:36:45.627Z,20.37
2018-10-17T23:39:14.601Z,20.13
2018-10-17T23:41:43.013Z,22.07
2018-10-17T23:44:11.367Z,18.63
2018-10-17T23:46:39.765Z,20.93
2018-10-17T23:49:08.028Z,21.57
2018-10-17T23:51:36.326Z,21.00
2018-10-17T23:54:04.685Z,21.27
2018-10-17T23:56:33.061Z,21.73
2018-10-17T23:59:01.381Z,20.53
